sensor_id;sensor_type;location;lat;lon;timestamp;temperature;humidity
36206;DHT22;22242;48.796;9.930;2023-06-26T00:02:01;20.90;74.20
36206;DHT22;22242;48.796;9.930;2023-06-26T00:04:28;21.00;73.40
36206;DHT22;22242;48.796;9.930;2023-06-26T00:06:55;21.00;73.00
36206;DHT22;22242;48.796;9.930;2023-06-26T00:09:22;21.10;72.60
36206;DHT22;22242;48.796;9.930;2023-06-26T00:11:50;21.20;72.60
36206;DHT22;22242;48.796;9.930;2023-06-26T00:14:18;21.10;73.20
36206;DHT22;22242;48.796;9.930;2023-06-26T00:16:46;21.10;73.10
36206;DHT22;22242;48.796;9.930;2023-06-26T00:19:15;21.10;73.40
36206;DHT22;22242;48.796;9.930;2023-06-26T00:21:42;21.10;73.60
36206;DHT22;22242;48.796;9.930;2023-06-26T00:24:12;21.10;74.10
36206;DHT22;22242;48.796;9.930;2023-06-26T00:26:39;21.10;73.80
36206;DHT22;22242;48.796;9.930;2023-06-26T00:29:08;21.20;74.30
36206;DHT22;22242;48.796;9.930;2023-06-26T00:31:35;21.20;74.40
36206;DHT22;22242;48.796;9.930;2023-06-26T00:34:03;21.20;74.70
36206;DHT22;22242;48.796;9.930;2023-06-26T00:36:30;21.20;75.20
36206;DHT22;22242;48.796;9.930;2023-06-26T00:38:58;21.20;75.40
36206;DHT22;22242;48.796;9.930;2023-06-26T00:41:27;21.20;75.30
36206;DHT22;22242;48.796;9.930;2023-06-26T00:43:54;21.20;76.20
36206;DHT22;22242;48.796;9.930;2023-06-26T00:46:22;21.10;76.30
36206;DHT22;22242;48.796;9.930;2023-06-26T00:48:52;21.00;76.90
36206;DHT22;22242;48.796;9.930;2023-06-26T00:51:21;21.00;77.80
36206;DHT22;22242;48.796;9.930;2023-06-26T00:53:50;21.00;77.60
36206;DHT22;22242;48.796;9.930;2023-06-26T00:56:20;21.00;77.00
36206;DHT22;22242;48.796;9.930;2023-06-26T00:58:47;21.10;76.50
36206;DHT22;22242;48.796;9.930;2023-06-26T01:01:14;21.10;76.70
36206;DHT22;22242;48.796;9.930;2023-06-26T01:03:45;21.00;76.60
36206;DHT22;22242;48.796;9.930;2023-06-26T01:06:14;21.10;76.60
36206;DHT22;22242;48.796;9.930;2023-06-26T01:08:44;21.20;75.30
36206;DHT22;22242;48.796;9.930;2023-06-26T01:11:11;21.10;74.80
36206;DHT22;22242;48.796;9.930;2023-06-26T01:13:40;21.20;73.60
36206;DHT22;22242;48.796;9.930;2023-06-26T01:16:09;21.30;73.20
36206;DHT22;22242;48.796;9.930;2023-06-26T01:18:38;21.20;73.70
36206;DHT22;22242;48.796;9.930;2023-06-26T01:21:11;21.20;73.20
36206;DHT22;22242;48.796;9.930;2023-06-26T01:23:48;21.30;73.10
36206;DHT22;22242;48.796;9.930;2023-06-26T01:26:21;21.40;72.20
36206;DHT22;22242;48.796;9.930;2023-06-26T01:28:50;21.50;71.50
36206;DHT22;22242;48.796;9.930;2023-06-26T01:31:19;21.40;71.70
36206;DHT22;22242;48.796;9.930;2023-06-26T01:33:47;21.40;71.60
36206;DHT22;22242;48.796;9.930;2023-06-26T01:36:14;21.30;72.30
36206;DHT22;22242;48.796;9.930;2023-06-26T01:38:41;21.10;72.20
36206;DHT22;22242;48.796;9.930;2023-06-26T01:41:08;21.20;71.90
36206;DHT22;22242;48.796;9.930;2023-06-26T01:43:46;21.10;72.40
36206;DHT22;22242;48.796;9.930;2023-06-26T01:46:22;21.20;70.80
36206;DHT22;22242;48.796;9.930;2023-06-26T01:48:55;21.20;70.70
36206;DHT22;22242;48.796;9.930;2023-06-26T01:51:30;21.40;70.30
36206;DHT22;22242;48.796;9.930;2023-06-26T01:54:00;21.40;69.80
36206;DHT22;22242;48.796;9.930;2023-06-26T01:56:28;21.40;69.30
36206;DHT22;22242;48.796;9.930;2023-06-26T01:58:57;21.40;68.90
36206;DHT22;22242;48.796;9.930;2023-06-26T02:01:26;21.30;69.10
36206;DHT22;22242;48.796;9.930;2023-06-26T02:03:53;21.30;69.50
36206;DHT22;22242;48.796;9.930;2023-06-26T02:06:20;21.20;69.60
36206;DHT22;22242;48.796;9.930;2023-06-26T02:08:47;21.20;69.60
36206;DHT22;22242;48.796;9.930;2023-06-26T02:11:14;21.30;69.70
36206;DHT22;22242;48.796;9.930;2023-06-26T02:13:41;21.30;68.80
36206;DHT22;22242;48.796;9.930;2023-06-26T02:16:10;21.40;68.30
36206;DHT22;22242;48.796;9.930;2023-06-26T02:18:37;21.40;68.10
36206;DHT22;22242;48.796;9.930;2023-06-26T02:21:04;21.40;68.30
36206;DHT22;22242;48.796;9.930;2023-06-26T02:23:31;21.40;68.30
36206;DHT22;22242;48.796;9.930;2023-06-26T02:25:59;21.40;68.40
36206;DHT22;22242;48.796;9.930;2023-06-26T02:28:26;21.40;68.70
36206;DHT22;22242;48.796;9.930;2023-06-26T02:30:54;21.40;69.10
36206;DHT22;22242;48.796;9.930;2023-06-26T02:33:22;21.30;68.90
36206;DHT22;22242;48.796;9.930;2023-06-26T02:35:50;21.50;68.90
36206;DHT22;22242;48.796;9.930;2023-06-26T02:38:17;21.50;68.80
36206;DHT22;22242;48.796;9.930;2023-06-26T02:40:46;21.60;68.30
36206;DHT22;22242;48.796;9.930;2023-06-26T02:43:15;21.60;68.50
36206;DHT22;22242;48.796;9.930;2023-06-26T02:45:42;21.50;69.10
36206;DHT22;22242;48.796;9.930;2023-06-26T02:48:09;21.50;68.80
36206;DHT22;22242;48.796;9.930;2023-06-26T02:50:37;21.50;68.80
36206;DHT22;22242;48.796;9.930;2023-06-26T02:53:12;21.60;69.40
36206;DHT22;22242;48.796;9.930;2023-06-26T02:55:42;21.70;68.40
36206;DHT22;22242;48.796;9.930;2023-06-26T02:58:09;21.70;68.40
36206;DHT22;22242;48.796;9.930;2023-06-26T03:00:37;21.60;68.60
36206;DHT22;22242;48.796;9.930;2023-06-26T03:03:09;21.70;68.60
36206;DHT22;22242;48.796;9.930;2023-06-26T03:05:38;21.60;68.70
36206;DHT22;22242;48.796;9.930;2023-06-26T03:08:05;21.60;68.70
36206;DHT22;22242;48.796;9.930;2023-06-26T03:10:32;21.70;68.60
36206;DHT22;22242;48.796;9.930;2023-06-26T03:12:59;21.60;69.10
36206;DHT22;22242;48.796;9.930;2023-06-26T03:15:27;21.50;69.80
36206;DHT22;22242;48.796;9.930;2023-06-26T03:17:54;21.30;70.30
36206;DHT22;22242;48.796;9.930;2023-06-26T03:20:25;21.20;72.20
36206;DHT22;22242;48.796;9.930;2023-06-26T03:22:55;20.80;73.60
36206;DHT22;22242;48.796;9.930;2023-06-26T03:25:23;20.40;75.80
36206;DHT22;22242;48.796;9.930;2023-06-26T03:27:58;20.10;77.40
36206;DHT22;22242;48.796;9.930;2023-06-26T03:30:26;19.90;78.90
36206;DHT22;22242;48.796;9.930;2023-06-26T03:32:56;19.70;82.50
36206;DHT22;22242;48.796;9.930;2023-06-26T03:35:23;19.50;85.00
36206;DHT22;22242;48.796;9.930;2023-06-26T03:37:50;19.30;85.50
36206;DHT22;22242;48.796;9.930;2023-06-26T03:40:19;19.20;85.60
36206;DHT22;22242;48.796;9.930;2023-06-26T03:42:46;19.10;87.50
36206;DHT22;22242;48.796;9.930;2023-06-26T03:45:13;19.00;88.80
36206;DHT22;22242;48.796;9.930;2023-06-26T03:47:42;19.00;90.00
36206;DHT22;22242;48.796;9.930;2023-06-26T03:50:10;18.90;91.10
36206;DHT22;22242;48.796;9.930;2023-06-26T03:52:37;18.80;91.00
36206;DHT22;22242;48.796;9.930;2023-06-26T03:55:04;18.70;92.40
36206;DHT22;22242;48.796;9.930;2023-06-26T03:57:33;18.60;94.40
36206;DHT22;22242;48.796;9.930;2023-06-26T04:00:01;18.60;94.50
36206;DHT22;22242;48.796;9.930;2023-06-26T04:02:40;18.50;95.90
36206;DHT22;22242;48.796;9.930;2023-06-26T04:05:08;18.60;95.80
36206;DHT22;22242;48.796;9.930;2023-06-26T04:07:36;18.60;95.60
36206;DHT22;22242;48.796;9.930;2023-06-26T04:10:06;18.70;93.50
36206;DHT22;22242;48.796;9.930;2023-06-26T04:12:35;18.80;94.00
36206;DHT22;22242;48.796;9.930;2023-06-26T04:15:02;18.90;97.70
36206;DHT22;22242;48.796;9.930;2023-06-26T04:17:29;18.80;98.60
36206;DHT22;22242;48.796;9.930;2023-06-26T04:19:56;18.90;98.90
36206;DHT22;22242;48.796;9.930;2023-06-26T04:22:23;18.80;96.90
36206;DHT22;22242;48.796;9.930;2023-06-26T04:24:50;19.00;99.80
36206;DHT22;22242;48.796;9.930;2023-06-26T04:27:17;19.10;99.90
36206;DHT22;22242;48.796;9.930;2023-06-26T04:29:46;19.10;99.90
36206;DHT22;22242;48.796;9.930;2023-06-26T04:32:13;19.10;99.90
36206;DHT22;22242;48.796;9.930;2023-06-26T04:34:40;19.20;99.90
36206;DHT22;22242;48.796;9.930;2023-06-26T04:37:09;19.30;98.90
36206;DHT22;22242;48.796;9.930;2023-06-26T04:39:37;19.50;97.80
36206;DHT22;22242;48.796;9.930;2023-06-26T04:42:05;19.60;96.20
36206;DHT22;22242;48.796;9.930;2023-06-26T04:44:33;19.60;96.10
36206;DHT22;22242;48.796;9.930;2023-06-26T04:47:01;19.70;98.80
36206;DHT22;22242;48.796;9.930;2023-06-26T04:49:28;19.80;98.20
36206;DHT22;22242;48.796;9.930;2023-06-26T04:51:56;19.90;96.40
36206;DHT22;22242;48.796;9.930;2023-06-26T04:54:26;20.00;96.70
36206;DHT22;22242;48.796;9.930;2023-06-26T04:56:53;20.10;95.80
36206;DHT22;22242;48.796;9.930;2023-06-26T04:59:21;20.20;98.00
36206;DHT22;22242;48.796;9.930;2023-06-26T05:01:48;20.30;99.90
36206;DHT22;22242;48.796;9.930;2023-06-26T05:04:16;20.60;98.10
36206;DHT22;22242;48.796;9.930;2023-06-26T05:06:44;20.90;96.70
36206;DHT22;22242;48.796;9.930;2023-06-26T05:09:11;21.10;95.30
36206;DHT22;22242;48.796;9.930;2023-06-26T05:11:38;21.20;96.30
36206;DHT22;22242;48.796;9.930;2023-06-26T05:14:05;21.10;96.80
36206;DHT22;22242;48.796;9.930;2023-06-26T05:16:35;21.00;97.20
36206;DHT22;22242;48.796;9.930;2023-06-26T05:19:02;20.70;98.70
36206;DHT22;22242;48.796;9.930;2023-06-26T05:21:31;20.70;99.90
36206;DHT22;22242;48.796;9.930;2023-06-26T05:23:59;20.80;99.90
36206;DHT22;22242;48.796;9.930;2023-06-26T05:26:27;20.80;97.20
36206;DHT22;22242;48.796;9.930;2023-06-26T05:28:54;20.90;94.90
36206;DHT22;22242;48.796;9.930;2023-06-26T05:31:22;20.90;95.80
36206;DHT22;22242;48.796;9.930;2023-06-26T05:33:50;21.10;93.90
36206;DHT22;22242;48.796;9.930;2023-06-26T05:36:20;21.20;93.90
36206;DHT22;22242;48.796;9.930;2023-06-26T05:38:50;21.20;93.60
36206;DHT22;22242;48.796;9.930;2023-06-26T05:41:18;21.20;93.80
36206;DHT22;22242;48.796;9.930;2023-06-26T05:43:45;21.40;95.50
36206;DHT22;22242;48.796;9.930;2023-06-26T05:46:13;21.40;94.80
36206;DHT22;22242;48.796;9.930;2023-06-26T05:48:40;21.40;93.80
36206;DHT22;22242;48.796;9.930;2023-06-26T05:51:08;21.40;93.70
36206;DHT22;22242;48.796;9.930;2023-06-26T05:53:36;21.50;93.60
36206;DHT22;22242;48.796;9.930;2023-06-26T05:56:05;21.70;96.50
36206;DHT22;22242;48.796;9.930;2023-06-26T05:58:32;21.70;95.10
36206;DHT22;22242;48.796;9.930;2023-06-26T06:01:00;21.90;95.50
36206;DHT22;22242;48.796;9.930;2023-06-26T06:03:27;22.00;95.20
36206;DHT22;22242;48.796;9.930;2023-06-26T06:05:54;21.90;95.10
36206;DHT22;22242;48.796;9.930;2023-06-26T06:08:21;22.00;95.30
36206;DHT22;22242;48.796;9.930;2023-06-26T06:10:48;22.10;96.20
36206;DHT22;22242;48.796;9.930;2023-06-26T06:13:17;22.10;96.60
36206;DHT22;22242;48.796;9.930;2023-06-26T06:15:44;22.30;96.40
36206;DHT22;22242;48.796;9.930;2023-06-26T06:18:11;22.50;96.90
36206;DHT22;22242;48.796;9.930;2023-06-26T06:20:38;22.70;95.70
36206;DHT22;22242;48.796;9.930;2023-06-26T06:23:05;23.00;96.20
36206;DHT22;22242;48.796;9.930;2023-06-26T06:25:32;23.00;96.30
36206;DHT22;22242;48.796;9.930;2023-06-26T06:27:59;23.00;96.30
36206;DHT22;22242;48.796;9.930;2023-06-26T06:30:28;23.40;96.30
36206;DHT22;22242;48.796;9.930;2023-06-26T06:32:55;23.70;95.00
36206;DHT22;22242;48.796;9.930;2023-06-26T06:35:22;24.00;94.80
36206;DHT22;22242;48.796;9.930;2023-06-26T06:37:49;24.70;93.60
36206;DHT22;22242;48.796;9.930;2023-06-26T06:40:16;25.40;91.50
36206;DHT22;22242;48.796;9.930;2023-06-26T06:42:44;25.90;90.10
36206;DHT22;22242;48.796;9.930;2023-06-26T06:45:11;26.80;85.50
36206;DHT22;22242;48.796;9.930;2023-06-26T06:47:39;27.00;84.70
36206;DHT22;22242;48.796;9.930;2023-06-26T06:50:07;27.30;82.20
36206;DHT22;22242;48.796;9.930;2023-06-26T06:52:37;28.10;80.80
36206;DHT22;22242;48.796;9.930;2023-06-26T06:55:07;28.60;77.30
36206;DHT22;22242;48.796;9.930;2023-06-26T06:57:35;29.40;72.70
36206;DHT22;22242;48.796;9.930;2023-06-26T07:00:04;29.80;71.90
36206;DHT22;22242;48.796;9.930;2023-06-26T07:02:34;28.90;73.30
36206;DHT22;22242;48.796;9.930;2023-06-26T07:05:03;29.20;71.50
36206;DHT22;22242;48.796;9.930;2023-06-26T07:07:32;29.60;67.40
36206;DHT22;22242;48.796;9.930;2023-06-26T07:10:00;28.70;70.70
36206;DHT22;22242;48.796;9.930;2023-06-26T07:12:28;28.90;69.00
36206;DHT22;22242;48.796;9.930;2023-06-26T07:14:55;29.90;67.60
36206;DHT22;22242;48.796;9.930;2023-06-26T07:17:23;30.90;64.10
36206;DHT22;22242;48.796;9.930;2023-06-26T07:19:50;31.50;63.00
36206;DHT22;22242;48.796;9.930;2023-06-26T07:22:18;31.90;61.30
36206;DHT22;22242;48.796;9.930;2023-06-26T07:24:46;31.20;60.40
36206;DHT22;22242;48.796;9.930;2023-06-26T07:27:14;31.20;60.70
36206;DHT22;22242;48.796;9.930;2023-06-26T07:29:41;32.20;59.40
36206;DHT22;22242;48.796;9.930;2023-06-26T07:32:08;33.30;56.40
36206;DHT22;22242;48.796;9.930;2023-06-26T07:34:36;34.10;53.50
36206;DHT22;22242;48.796;9.930;2023-06-26T07:37:03;33.00;55.10
36206;DHT22;22242;48.796;9.930;2023-06-26T07:39:31;32.70;55.50
36206;DHT22;22242;48.796;9.930;2023-06-26T07:41:58;32.90;56.50
36206;DHT22;22242;48.796;9.930;2023-06-26T07:44:26;33.80;53.30
36206;DHT22;22242;48.796;9.930;2023-06-26T07:46:53;33.00;52.90
36206;DHT22;22242;48.796;9.930;2023-06-26T07:49:20;33.60;51.90
36206;DHT22;22242;48.796;9.930;2023-06-26T07:51:47;34.00;52.10
36206;DHT22;22242;48.796;9.930;2023-06-26T07:54:14;34.70;50.90
36206;DHT22;22242;48.796;9.930;2023-06-26T07:56:56;36.50;48.00
36206;DHT22;22242;48.796;9.930;2023-06-26T07:59:24;36.80;46.10
36206;DHT22;22242;48.796;9.930;2023-06-26T08:01:52;34.80;47.70
36206;DHT22;22242;48.796;9.930;2023-06-26T08:04:20;34.30;48.90
36206;DHT22;22242;48.796;9.930;2023-06-26T08:06:48;33.80;49.40
36206;DHT22;22242;48.796;9.930;2023-06-26T08:09:17;33.50;50.40
36206;DHT22;22242;48.796;9.930;2023-06-26T08:11:44;34.40;48.40
36206;DHT22;22242;48.796;9.930;2023-06-26T08:14:13;35.50;47.90
36206;DHT22;22242;48.796;9.930;2023-06-26T08:16:41;35.30;48.00
36206;DHT22;22242;48.796;9.930;2023-06-26T08:19:08;34.80;47.20
36206;DHT22;22242;48.796;9.930;2023-06-26T08:21:35;35.50;46.30
36206;DHT22;22242;48.796;9.930;2023-06-26T08:24:03;35.70;45.00
36206;DHT22;22242;48.796;9.930;2023-06-26T08:26:30;35.10;47.20
36206;DHT22;22242;48.796;9.930;2023-06-26T08:28:57;35.30;47.00
36206;DHT22;22242;48.796;9.930;2023-06-26T08:31:25;34.60;47.80
36206;DHT22;22242;48.796;9.930;2023-06-26T08:33:52;35.60;45.30
36206;DHT22;22242;48.796;9.930;2023-06-26T08:36:19;34.50;46.30
36206;DHT22;22242;48.796;9.930;2023-06-26T08:38:47;34.70;47.30
36206;DHT22;22242;48.796;9.930;2023-06-26T08:41:14;34.50;47.60
36206;DHT22;22242;48.796;9.930;2023-06-26T08:43:41;35.00;46.00
36206;DHT22;22242;48.796;9.930;2023-06-26T08:46:08;35.20;47.50
36206;DHT22;22242;48.796;9.930;2023-06-26T08:48:37;34.20;49.00
36206;DHT22;22242;48.796;9.930;2023-06-26T08:51:09;33.90;48.30
36206;DHT22;22242;48.796;9.930;2023-06-26T08:53:43;34.10;46.10
36206;DHT22;22242;48.796;9.930;2023-06-26T08:56:17;34.40;46.90
36206;DHT22;22242;48.796;9.930;2023-06-26T08:58:47;35.40;46.90
36206;DHT22;22242;48.796;9.930;2023-06-26T09:01:14;35.70;45.90
36206;DHT22;22242;48.796;9.930;2023-06-26T09:03:42;36.60;44.10
36206;DHT22;22242;48.796;9.930;2023-06-26T09:06:10;36.20;45.30
36206;DHT22;22242;48.796;9.930;2023-06-26T09:08:38;35.20;45.80
36206;DHT22;22242;48.796;9.930;2023-06-26T09:11:05;35.10;47.00
36206;DHT22;22242;48.796;9.930;2023-06-26T09:13:32;35.20;47.40
36206;DHT22;22242;48.796;9.930;2023-06-26T09:15:59;35.60;46.50
36206;DHT22;22242;48.796;9.930;2023-06-26T09:18:31;35.10;46.80
36206;DHT22;22242;48.796;9.930;2023-06-26T09:21:03;35.90;46.20
36206;DHT22;22242;48.796;9.930;2023-06-26T09:23:33;36.10;45.90
36206;DHT22;22242;48.796;9.930;2023-06-26T09:26:02;35.40;47.50
36206;DHT22;22242;48.796;9.930;2023-06-26T09:28:30;35.30;45.90
36206;DHT22;22242;48.796;9.930;2023-06-26T09:31:00;35.10;46.20
36206;DHT22;22242;48.796;9.930;2023-06-26T09:33:33;34.90;46.00
36206;DHT22;22242;48.796;9.930;2023-06-26T09:36:05;34.80;46.50
36206;DHT22;22242;48.796;9.930;2023-06-26T09:38:33;35.00;47.70
36206;DHT22;22242;48.796;9.930;2023-06-26T09:41:00;35.70;44.80
36206;DHT22;22242;48.796;9.930;2023-06-26T09:43:27;34.80;47.50
36206;DHT22;22242;48.796;9.930;2023-06-26T09:45:54;35.70;44.90
36206;DHT22;22242;48.796;9.930;2023-06-26T09:48:21;35.70;45.70
36206;DHT22;22242;48.796;9.930;2023-06-26T09:50:49;35.90;46.30
36206;DHT22;22242;48.796;9.930;2023-06-26T09:53:17;34.70;46.70
36206;DHT22;22242;48.796;9.930;2023-06-26T09:55:45;35.00;46.00
36206;DHT22;22242;48.796;9.930;2023-06-26T09:58:13;35.50;47.00
36206;DHT22;22242;48.796;9.930;2023-06-26T10:00:41;34.60;47.50
36206;DHT22;22242;48.796;9.930;2023-06-26T10:03:08;34.70;47.50
36206;DHT22;22242;48.796;9.930;2023-06-26T10:05:35;35.20;43.80
36206;DHT22;22242;48.796;9.930;2023-06-26T10:08:04;35.20;44.20
36206;DHT22;22242;48.796;9.930;2023-06-26T10:10:33;34.80;45.50
36206;DHT22;22242;48.796;9.930;2023-06-26T10:13:07;35.90;44.80
36206;DHT22;22242;48.796;9.930;2023-06-26T10:15:36;35.20;45.10
36206;DHT22;22242;48.796;9.930;2023-06-26T10:18:03;36.00;44.10
36206;DHT22;22242;48.796;9.930;2023-06-26T10:20:32;35.10;44.50
36206;DHT22;22242;48.796;9.930;2023-06-26T10:23:00;34.60;45.10
36206;DHT22;22242;48.796;9.930;2023-06-26T10:25:32;34.30;46.50
36206;DHT22;22242;48.796;9.930;2023-06-26T10:28:01;33.80;47.40
36206;DHT22;22242;48.796;9.930;2023-06-26T10:30:33;33.50;47.90
36206;DHT22;22242;48.796;9.930;2023-06-26T10:33:02;33.80;47.40
36206;DHT22;22242;48.796;9.930;2023-06-26T10:35:30;34.40;46.40
36206;DHT22;22242;48.796;9.930;2023-06-26T10:38:02;34.60;46.10
36206;DHT22;22242;48.796;9.930;2023-06-26T10:40:41;35.00;46.40
36206;DHT22;22242;48.796;9.930;2023-06-26T10:43:09;34.90;45.70
36206;DHT22;22242;48.796;9.930;2023-06-26T10:45:37;34.20;48.00
36206;DHT22;22242;48.796;9.930;2023-06-26T10:48:09;34.40;47.10
36206;DHT22;22242;48.796;9.930;2023-06-26T10:50:36;32.50;47.40
36206;DHT22;22242;48.796;9.930;2023-06-26T10:53:15;33.20;47.10
36206;DHT22;22242;48.796;9.930;2023-06-26T10:55:49;33.50;47.40
36206;DHT22;22242;48.796;9.930;2023-06-26T10:58:26;33.00;48.30
36206;DHT22;22242;48.796;9.930;2023-06-26T11:01:14;33.60;48.80
36206;DHT22;22242;48.796;9.930;2023-06-26T11:03:44;34.20;48.00
36206;DHT22;22242;48.796;9.930;2023-06-26T11:06:11;33.80;48.20
36206;DHT22;22242;48.796;9.930;2023-06-26T11:08:49;33.80;47.80
36206;DHT22;22242;48.796;9.930;2023-06-26T11:11:18;34.10;47.50
36206;DHT22;22242;48.796;9.930;2023-06-26T11:13:46;33.60;49.00
36206;DHT22;22242;48.796;9.930;2023-06-26T11:16:15;33.60;49.30
36206;DHT22;22242;48.796;9.930;2023-06-26T11:18:42;33.80;47.80
36206;DHT22;22242;48.796;9.930;2023-06-26T11:21:11;33.50;48.30
36206;DHT22;22242;48.796;9.930;2023-06-26T11:23:41;32.30;51.00
36206;DHT22;22242;48.796;9.930;2023-06-26T11:26:19;31.50;52.00
36206;DHT22;22242;48.796;9.930;2023-06-26T11:28:48;31.50;52.90
36206;DHT22;22242;48.796;9.930;2023-06-26T11:31:28;31.30;52.10
36206;DHT22;22242;48.796;9.930;2023-06-26T11:33:57;31.70;54.60
36206;DHT22;22242;48.796;9.930;2023-06-26T11:36:25;32.10;54.80
36206;DHT22;22242;48.796;9.930;2023-06-26T11:38:55;31.50;53.60
36206;DHT22;22242;48.796;9.930;2023-06-26T11:41:25;30.80;54.50
36206;DHT22;22242;48.796;9.930;2023-06-26T11:43:52;30.60;55.70
36206;DHT22;22242;48.796;9.930;2023-06-26T11:46:21;30.40;55.50
36206;DHT22;22242;48.796;9.930;2023-06-26T11:48:48;30.70;57.20
36206;DHT22;22242;48.796;9.930;2023-06-26T11:51:15;31.30;56.00
36206;DHT22;22242;48.796;9.930;2023-06-26T11:53:45;31.20;54.80
36206;DHT22;22242;48.796;9.930;2023-06-26T11:56:14;30.40;55.00
36206;DHT22;22242;48.796;9.930;2023-06-26T11:58:58;30.00;56.20
36206;DHT22;22242;48.796;9.930;2023-06-26T12:01:27;30.40;56.80
36206;DHT22;22242;48.796;9.930;2023-06-26T12:03:59;30.10;56.20
36206;DHT22;22242;48.796;9.930;2023-06-26T12:06:27;29.90;57.00
36206;DHT22;22242;48.796;9.930;2023-06-26T12:08:55;29.90;58.00
36206;DHT22;22242;48.796;9.930;2023-06-26T12:11:23;30.40;57.10
36206;DHT22;22242;48.796;9.930;2023-06-26T12:13:51;30.70;56.80
36206;DHT22;22242;48.796;9.930;2023-06-26T12:16:20;31.10;57.20
36206;DHT22;22242;48.796;9.930;2023-06-26T12:18:47;30.90;56.60
36206;DHT22;22242;48.796;9.930;2023-06-26T12:21:47;30.70;55.90
36206;DHT22;22242;48.796;9.930;2023-06-26T12:24:20;30.90;56.40
36206;DHT22;22242;48.796;9.930;2023-06-26T12:26:51;31.00;55.90
36206;DHT22;22242;48.796;9.930;2023-06-26T12:29:20;31.10;56.30
36206;DHT22;22242;48.796;9.930;2023-06-26T12:31:52;31.50;56.80
36206;DHT22;22242;48.796;9.930;2023-06-26T12:34:21;31.10;55.90
36206;DHT22;22242;48.796;9.930;2023-06-26T12:36:49;31.40;56.50
36206;DHT22;22242;48.796;9.930;2023-06-26T12:39:18;31.50;55.90
36206;DHT22;22242;48.796;9.930;2023-06-26T12:41:48;31.30;56.70
36206;DHT22;22242;48.796;9.930;2023-06-26T12:44:19;30.90;57.30
36206;DHT22;22242;48.796;9.930;2023-06-26T12:46:47;30.70;58.00
36206;DHT22;22242;48.796;9.930;2023-06-26T12:49:16;30.80;59.00
36206;DHT22;22242;48.796;9.930;2023-06-26T12:51:45;30.50;59.50
36206;DHT22;22242;48.796;9.930;2023-06-26T12:54:12;30.60;60.10
36206;DHT22;22242;48.796;9.930;2023-06-26T12:56:39;30.70;60.80
36206;DHT22;22242;48.796;9.930;2023-06-26T12:59:06;30.40;59.80
36206;DHT22;22242;48.796;9.930;2023-06-26T13:01:33;30.20;61.50
36206;DHT22;22242;48.796;9.930;2023-06-26T13:04:01;30.60;61.00
36206;DHT22;22242;48.796;9.930;2023-06-26T13:06:30;30.40;59.20
36206;DHT22;22242;48.796;9.930;2023-06-26T13:08:58;30.40;61.70
36206;DHT22;22242;48.796;9.930;2023-06-26T13:11:25;30.30;63.60
36206;DHT22;22242;48.796;9.930;2023-06-26T13:13:52;30.50;62.10
36206;DHT22;22242;48.796;9.930;2023-06-26T13:16:19;30.40;63.10
36206;DHT22;22242;48.796;9.930;2023-06-26T13:18:47;30.40;62.70
36206;DHT22;22242;48.796;9.930;2023-06-26T13:21:14;30.60;62.40
36206;DHT22;22242;48.796;9.930;2023-06-26T13:23:43;30.70;64.50
36206;DHT22;22242;48.796;9.930;2023-06-26T13:26:11;30.40;64.70
36206;DHT22;22242;48.796;9.930;2023-06-26T13:28:38;30.70;64.50
36206;DHT22;22242;48.796;9.930;2023-06-26T13:31:05;30.70;66.70
36206;DHT22;22242;48.796;9.930;2023-06-26T13:33:32;30.50;64.70
36206;DHT22;22242;48.796;9.930;2023-06-26T13:35:59;30.30;64.90
36206;DHT22;22242;48.796;9.930;2023-06-26T13:38:29;30.20;66.50
36206;DHT22;22242;48.796;9.930;2023-06-26T13:40:57;30.20;66.20
36206;DHT22;22242;48.796;9.930;2023-06-26T13:43:27;30.20;65.60
36206;DHT22;22242;48.796;9.930;2023-06-26T13:45:54;30.60;63.00
36206;DHT22;22242;48.796;9.930;2023-06-26T13:48:22;30.40;63.90
36206;DHT22;22242;48.796;9.930;2023-06-26T13:50:50;30.60;65.70
36206;DHT22;22242;48.796;9.930;2023-06-26T13:53:17;30.70;65.60
36206;DHT22;22242;48.796;9.930;2023-06-26T13:55:44;30.60;66.70
36206;DHT22;22242;48.796;9.930;2023-06-26T13:58:13;30.40;64.10
36206;DHT22;22242;48.796;9.930;2023-06-26T14:00:40;30.10;65.40
36206;DHT22;22242;48.796;9.930;2023-06-26T14:03:10;29.60;66.50
36206;DHT22;22242;48.796;9.930;2023-06-26T14:05:38;29.30;68.50
36206;DHT22;22242;48.796;9.930;2023-06-26T14:08:06;29.50;68.80
36206;DHT22;22242;48.796;9.930;2023-06-26T14:10:34;29.90;68.40
36206;DHT22;22242;48.796;9.930;2023-06-26T14:13:02;29.70;68.00
36206;DHT22;22242;48.796;9.930;2023-06-26T14:15:32;29.60;69.20
36206;DHT22;22242;48.796;9.930;2023-06-26T14:17:59;29.50;69.00
36206;DHT22;22242;48.796;9.930;2023-06-26T14:20:28;29.60;69.50
36206;DHT22;22242;48.796;9.930;2023-06-26T14:22:58;29.40;68.90
36206;DHT22;22242;48.796;9.930;2023-06-26T14:25:26;29.00;70.30
36206;DHT22;22242;48.796;9.930;2023-06-26T14:27:54;28.80;71.90
36206;DHT22;22242;48.796;9.930;2023-06-26T14:30:21;28.90;74.40
36206;DHT22;22242;48.796;9.930;2023-06-26T14:32:49;29.00;71.90
36206;DHT22;22242;48.796;9.930;2023-06-26T14:35:16;28.80;71.30
36206;DHT22;22242;48.796;9.930;2023-06-26T14:37:43;28.80;70.90
36206;DHT22;22242;48.796;9.930;2023-06-26T14:40:11;29.10;70.60
36206;DHT22;22242;48.796;9.930;2023-06-26T14:42:38;28.90;70.40
36206;DHT22;22242;48.796;9.930;2023-06-26T14:45:07;29.00;71.00
36206;DHT22;22242;48.796;9.930;2023-06-26T14:47:34;28.90;69.30
36206;DHT22;22242;48.796;9.930;2023-06-26T14:50:03;28.70;69.40
36206;DHT22;22242;48.796;9.930;2023-06-26T14:52:29;28.50;68.50
36206;DHT22;22242;48.796;9.930;2023-06-26T14:54:57;28.60;68.60
36206;DHT22;22242;48.796;9.930;2023-06-26T14:57:24;28.30;68.10
36206;DHT22;22242;48.796;9.930;2023-06-26T14:59:51;28.40;68.10
36206;DHT22;22242;48.796;9.930;2023-06-26T15:02:18;28.40;67.70
36206;DHT22;22242;48.796;9.930;2023-06-26T15:04:45;28.80;66.50
36206;DHT22;22242;48.796;9.930;2023-06-26T15:07:14;28.80;65.60
36206;DHT22;22242;48.796;9.930;2023-06-26T15:09:41;28.60;65.40
36206;DHT22;22242;48.796;9.930;2023-06-26T15:12:08;28.50;66.60
36206;DHT22;22242;48.796;9.930;2023-06-26T15:14:35;28.50;63.80
36206;DHT22;22242;48.796;9.930;2023-06-26T15:17:03;28.50;64.00
36206;DHT22;22242;48.796;9.930;2023-06-26T15:19:30;28.30;63.80
36206;DHT22;22242;48.796;9.930;2023-06-26T15:21:57;28.30;62.80
36206;DHT22;22242;48.796;9.930;2023-06-26T15:24:25;28.40;61.70
36206;DHT22;22242;48.796;9.930;2023-06-26T15:26:52;28.00;62.00
36206;DHT22;22242;48.796;9.930;2023-06-26T15:29:19;28.10;62.60
36206;DHT22;22242;48.796;9.930;2023-06-26T15:31:46;28.00;62.30
36206;DHT22;22242;48.796;9.930;2023-06-26T15:34:14;27.70;62.60
36206;DHT22;22242;48.796;9.930;2023-06-26T15:36:41;27.80;63.70
36206;DHT22;22242;48.796;9.930;2023-06-26T15:41:37;27.90;63.70